Terminal Aerodrome Forecast
Issued by NWS

Current Version | Previous Version | Text Only | Print | Product List | Glossary Off
Versions: 1 2 3 4 5 6 7 8 9 10 11 12 13 14

000
FTUS41 KPBZ 212326
TAFHLG
TAF
KHLG 212326Z 2200/2224 28005KT P6SM SCT060
      TEMPO 2200/2201 BKN060
     FM221500 26012KT P6SM VCSH BKN040
     FM221800 29015G22KT P6SM VCSH BKN050
     FM222100 31015G23KT P6SM SKC=

USA.gov is the U.S. government's official web portal to all federal, state and local government web resources and services.